sensor_id;sensor_type;location;lat;lon;timestamp;P1;durP1;ratioP1;P2;durP2;ratioP2
20146;SDS011;10234;50.856;15.716;2024-02-15T00:00:39;9.48;;;5.72;;
20146;SDS011;10234;50.856;15.716;2024-02-15T00:03:08;11.90;;;6.13;;
20146;SDS011;10234;50.856;15.716;2024-02-15T00:05:38;10.38;;;5.72;;
20146;SDS011;10234;50.856;15.716;2024-02-15T00:08:05;7.65;;;4.75;;
20146;SDS011;10234;50.856;15.716;2024-02-15T00:10:32;12.07;;;7.18;;
20146;SDS011;10234;50.856;15.716;2024-02-15T00:13:00;8.18;;;4.70;;
20146;SDS011;10234;50.856;15.716;2024-02-15T00:15:27;7.85;;;5.32;;
20146;SDS011;10234;50.856;15.716;2024-02-15T00:17:55;10.57;;;5.03;;
20146;SDS011;10234;50.856;15.716;2024-02-15T00:20:21;9.43;;;5.68;;
20146;SDS011;10234;50.856;15.716;2024-02-15T00:22:48;13.48;;;7.78;;
20146;SDS011;10234;50.856;15.716;2024-02-15T00:25:16;12.98;;;7.35;;
20146;SDS011;10234;50.856;15.716;2024-02-15T00:27:44;11.88;;;6.90;;
20146;SDS011;10234;50.856;15.716;2024-02-15T00:30:13;15.55;;;8.02;;
20146;SDS011;10234;50.856;15.716;2024-02-15T00:32:41;13.48;;;7.03;;
20146;SDS011;10234;50.856;15.716;2024-02-15T00:35:10;11.70;;;6.03;;
20146;SDS011;10234;50.856;15.716;2024-02-15T00:37:38;9.75;;;6.07;;
20146;SDS011;10234;50.856;15.716;2024-02-15T00:40:07;13.30;;;7.47;;
20146;SDS011;10234;50.856;15.716;2024-02-15T00:42:34;23.60;;;11.10;;
20146;SDS011;10234;50.856;15.716;2024-02-15T00:45:01;28.92;;;15.73;;
20146;SDS011;10234;50.856;15.716;2024-02-15T00:47:31;20.85;;;10.95;;
20146;SDS011;10234;50.856;15.716;2024-02-15T00:49:58;17.10;;;9.95;;
20146;SDS011;10234;50.856;15.716;2024-02-15T00:52:25;15.23;;;9.23;;
20146;SDS011;10234;50.856;15.716;2024-02-15T00:54:54;15.05;;;8.63;;
20146;SDS011;10234;50.856;15.716;2024-02-15T00:57:21;17.23;;;9.30;;
20146;SDS011;10234;50.856;15.716;2024-02-15T00:59:48;14.70;;;8.90;;
20146;SDS011;10234;50.856;15.716;2024-02-15T01:02:15;12.55;;;7.07;;
20146;SDS011;10234;50.856;15.716;2024-02-15T01:04:44;11.55;;;7.22;;
20146;SDS011;10234;50.856;15.716;2024-02-15T01:07:11;10.60;;;6.55;;
20146;SDS011;10234;50.856;15.716;2024-02-15T01:09:38;12.48;;;6.57;;
20146;SDS011;10234;50.856;15.716;2024-02-15T01:12:05;10.65;;;6.15;;
20146;SDS011;10234;50.856;15.716;2024-02-15T01:14:32;12.25;;;6.68;;
20146;SDS011;10234;50.856;15.716;2024-02-15T01:16:59;11.10;;;6.60;;
20146;SDS011;10234;50.856;15.716;2024-02-15T01:19:26;10.30;;;6.10;;
20146;SDS011;10234;50.856;15.716;2024-02-15T01:21:54;7.50;;;4.40;;
20146;SDS011;10234;50.856;15.716;2024-02-15T01:24:23;7.43;;;3.97;;
20146;SDS011;10234;50.856;15.716;2024-02-15T01:26:50;6.00;;;3.90;;
20146;SDS011;10234;50.856;15.716;2024-02-15T01:29:18;9.80;;;5.18;;
20146;SDS011;10234;50.856;15.716;2024-02-15T01:31:45;9.13;;;4.82;;
20146;SDS011;10234;50.856;15.716;2024-02-15T01:34:12;6.95;;;5.55;;
20146;SDS011;10234;50.856;15.716;2024-02-15T01:36:39;8.82;;;5.05;;
20146;SDS011;10234;50.856;15.716;2024-02-15T01:39:07;7.55;;;4.07;;
20146;SDS011;10234;50.856;15.716;2024-02-15T01:41:35;10.93;;;5.95;;
20146;SDS011;10234;50.856;15.716;2024-02-15T01:44:02;12.80;;;6.85;;
20146;SDS011;10234;50.856;15.716;2024-02-15T01:46:31;12.15;;;6.68;;
20146;SDS011;10234;50.856;15.716;2024-02-15T01:48:58;15.15;;;8.25;;
20146;SDS011;10234;50.856;15.716;2024-02-15T01:51:25;16.13;;;7.50;;
20146;SDS011;10234;50.856;15.716;2024-02-15T01:53:53;12.05;;;6.35;;
20146;SDS011;10234;50.856;15.716;2024-02-15T01:56:23;9.27;;;5.47;;
20146;SDS011;10234;50.856;15.716;2024-02-15T01:58:55;9.65;;;6.60;;
20146;SDS011;10234;50.856;15.716;2024-02-15T02:01:23;10.10;;;6.10;;
20146;SDS011;10234;50.856;15.716;2024-02-15T02:03:50;11.80;;;6.68;;
20146;SDS011;10234;50.856;15.716;2024-02-15T02:06:17;12.40;;;8.15;;
20146;SDS011;10234;50.856;15.716;2024-02-15T02:08:44;13.75;;;8.25;;
20146;SDS011;10234;50.856;15.716;2024-02-15T02:11:11;17.13;;;9.50;;
20146;SDS011;10234;50.856;15.716;2024-02-15T02:13:39;23.92;;;10.57;;
20146;SDS011;10234;50.856;15.716;2024-02-15T02:18:52;16.67;;;10.02;;
20146;SDS011;10234;50.856;15.716;2024-02-15T02:21:19;17.25;;;9.70;;
20146;SDS011;10234;50.856;15.716;2024-02-15T02:23:46;20.60;;;10.68;;
20146;SDS011;10234;50.856;15.716;2024-02-15T02:26:19;20.70;;;10.93;;
20146;SDS011;10234;50.856;15.716;2024-02-15T02:28:47;19.25;;;10.88;;
20146;SDS011;10234;50.856;15.716;2024-02-15T02:31:14;17.02;;;9.02;;
20146;SDS011;10234;50.856;15.716;2024-02-15T02:33:41;18.15;;;9.85;;
20146;SDS011;10234;50.856;15.716;2024-02-15T02:36:10;21.60;;;10.25;;
20146;SDS011;10234;50.856;15.716;2024-02-15T02:38:37;19.75;;;10.02;;
20146;SDS011;10234;50.856;15.716;2024-02-15T02:41:05;23.23;;;10.57;;
20146;SDS011;10234;50.856;15.716;2024-02-15T02:43:33;19.30;;;10.55;;
20146;SDS011;10234;50.856;15.716;2024-02-15T02:46:00;17.85;;;8.68;;
20146;SDS011;10234;50.856;15.716;2024-02-15T02:48:29;20.33;;;11.00;;
20146;SDS011;10234;50.856;15.716;2024-02-15T02:50:56;21.13;;;11.18;;
20146;SDS011;10234;50.856;15.716;2024-02-15T02:53:23;19.90;;;10.90;;
20146;SDS011;10234;50.856;15.716;2024-02-15T02:55:51;19.95;;;11.23;;
20146;SDS011;10234;50.856;15.716;2024-02-15T02:58:18;15.82;;;9.77;;
20146;SDS011;10234;50.856;15.716;2024-02-15T03:00:46;25.75;;;11.65;;
20146;SDS011;10234;50.856;15.716;2024-02-15T03:03:13;19.63;;;11.40;;
20146;SDS011;10234;50.856;15.716;2024-02-15T03:05:40;20.02;;;11.52;;
20146;SDS011;10234;50.856;15.716;2024-02-15T03:08:08;19.17;;;10.15;;
20146;SDS011;10234;50.856;15.716;2024-02-15T03:10:35;21.13;;;11.40;;
20146;SDS011;10234;50.856;15.716;2024-02-15T03:13:02;22.75;;;11.63;;
20146;SDS011;10234;50.856;15.716;2024-02-15T03:15:30;18.33;;;10.48;;
20146;SDS011;10234;50.856;15.716;2024-02-15T03:17:59;22.42;;;11.15;;
20146;SDS011;10234;50.856;15.716;2024-02-15T03:20:32;19.17;;;10.00;;
20146;SDS011;10234;50.856;15.716;2024-02-15T03:23:00;21.13;;;10.15;;
20146;SDS011;10234;50.856;15.716;2024-02-15T03:25:27;15.40;;;9.43;;
20146;SDS011;10234;50.856;15.716;2024-02-15T03:27:55;18.92;;;10.23;;
20146;SDS011;10234;50.856;15.716;2024-02-15T03:30:24;20.65;;;10.95;;
20146;SDS011;10234;50.856;15.716;2024-02-15T03:32:52;17.98;;;8.80;;
20146;SDS011;10234;50.856;15.716;2024-02-15T03:35:21;18.70;;;9.05;;
20146;SDS011;10234;50.856;15.716;2024-02-15T03:37:48;22.92;;;10.75;;
20146;SDS011;10234;50.856;15.716;2024-02-15T03:40:17;16.20;;;9.23;;
20146;SDS011;10234;50.856;15.716;2024-02-15T03:42:44;17.50;;;9.70;;
20146;SDS011;10234;50.856;15.716;2024-02-15T03:45:11;16.92;;;9.85;;
20146;SDS011;10234;50.856;15.716;2024-02-15T03:47:39;21.80;;;11.02;;
20146;SDS011;10234;50.856;15.716;2024-02-15T03:50:06;16.35;;;11.05;;
20146;SDS011;10234;50.856;15.716;2024-02-15T03:52:37;18.13;;;9.27;;
20146;SDS011;10234;50.856;15.716;2024-02-15T03:55:05;16.45;;;8.73;;
20146;SDS011;10234;50.856;15.716;2024-02-15T03:57:33;19.13;;;8.02;;
20146;SDS011;10234;50.856;15.716;2024-02-15T03:59:59;14.95;;;7.05;;
20146;SDS011;10234;50.856;15.716;2024-02-15T04:02:27;14.60;;;7.93;;
20146;SDS011;10234;50.856;15.716;2024-02-15T04:04:55;14.50;;;8.38;;
20146;SDS011;10234;50.856;15.716;2024-02-15T04:07:22;17.08;;;8.50;;
20146;SDS011;10234;50.856;15.716;2024-02-15T04:09:53;18.13;;;9.30;;
20146;SDS011;10234;50.856;15.716;2024-02-15T04:12:20;18.70;;;9.68;;
20146;SDS011;10234;50.856;15.716;2024-02-15T04:14:47;22.20;;;10.43;;
20146;SDS011;10234;50.856;15.716;2024-02-15T04:17:16;19.38;;;9.98;;
20146;SDS011;10234;50.856;15.716;2024-02-15T04:19:46;14.98;;;8.07;;
20146;SDS011;10234;50.856;15.716;2024-02-15T04:22:15;14.88;;;8.60;;
20146;SDS011;10234;50.856;15.716;2024-02-15T04:24:42;11.15;;;7.68;;
20146;SDS011;10234;50.856;15.716;2024-02-15T04:27:11;16.20;;;8.68;;
20146;SDS011;10234;50.856;15.716;2024-02-15T04:29:39;15.80;;;8.52;;
20146;SDS011;10234;50.856;15.716;2024-02-15T04:32:06;14.75;;;8.13;;
20146;SDS011;10234;50.856;15.716;2024-02-15T04:34:35;13.95;;;7.63;;
20146;SDS011;10234;50.856;15.716;2024-02-15T04:37:02;11.45;;;7.07;;
20146;SDS011;10234;50.856;15.716;2024-02-15T04:39:31;14.90;;;8.23;;
20146;SDS011;10234;50.856;15.716;2024-02-15T04:41:58;18.30;;;9.68;;
20146;SDS011;10234;50.856;15.716;2024-02-15T04:44:26;18.05;;;9.70;;
20146;SDS011;10234;50.856;15.716;2024-02-15T04:46:55;14.35;;;8.95;;
20146;SDS011;10234;50.856;15.716;2024-02-15T04:49:22;18.95;;;9.48;;
20146;SDS011;10234;50.856;15.716;2024-02-15T04:51:49;12.68;;;8.02;;
20146;SDS011;10234;50.856;15.716;2024-02-15T04:54:16;16.95;;;9.15;;
20146;SDS011;10234;50.856;15.716;2024-02-15T04:56:43;12.05;;;8.10;;
20146;SDS011;10234;50.856;15.716;2024-02-15T04:59:11;18.83;;;9.18;;
20146;SDS011;10234;50.856;15.716;2024-02-15T05:01:42;14.95;;;8.60;;
20146;SDS011;10234;50.856;15.716;2024-02-15T05:04:09;14.68;;;9.00;;
20146;SDS011;10234;50.856;15.716;2024-02-15T05:06:36;16.65;;;9.68;;
20146;SDS011;10234;50.856;15.716;2024-02-15T05:09:03;18.20;;;9.98;;
20146;SDS011;10234;50.856;15.716;2024-02-15T05:11:32;18.00;;;9.02;;
20146;SDS011;10234;50.856;15.716;2024-02-15T05:14:01;15.70;;;8.55;;
20146;SDS011;10234;50.856;15.716;2024-02-15T05:16:32;17.83;;;9.07;;
20146;SDS011;10234;50.856;15.716;2024-02-15T05:19:00;16.20;;;8.02;;
20146;SDS011;10234;50.856;15.716;2024-02-15T05:21:28;14.48;;;9.13;;
20146;SDS011;10234;50.856;15.716;2024-02-15T05:23:55;13.25;;;8.48;;
20146;SDS011;10234;50.856;15.716;2024-02-15T05:26:22;14.75;;;8.85;;
20146;SDS011;10234;50.856;15.716;2024-02-15T05:28:49;16.70;;;8.95;;
20146;SDS011;10234;50.856;15.716;2024-02-15T05:31:17;16.77;;;9.02;;
20146;SDS011;10234;50.856;15.716;2024-02-15T05:33:45;16.70;;;9.18;;
20146;SDS011;10234;50.856;15.716;2024-02-15T05:36:14;12.23;;;8.18;;
20146;SDS011;10234;50.856;15.716;2024-02-15T05:38:42;16.35;;;9.23;;
20146;SDS011;10234;50.856;15.716;2024-02-15T05:41:10;19.52;;;11.13;;
20146;SDS011;10234;50.856;15.716;2024-02-15T05:43:37;15.63;;;9.00;;
20146;SDS011;10234;50.856;15.716;2024-02-15T05:46:06;12.25;;;8.35;;
20146;SDS011;10234;50.856;15.716;2024-02-15T05:48:34;16.15;;;9.63;;
20146;SDS011;10234;50.856;15.716;2024-02-15T05:51:01;16.98;;;9.02;;
20146;SDS011;10234;50.856;15.716;2024-02-15T05:53:30;15.25;;;8.48;;
20146;SDS011;10234;50.856;15.716;2024-02-15T05:55:58;16.90;;;10.52;;
20146;SDS011;10234;50.856;15.716;2024-02-15T05:58:25;14.57;;;9.27;;
20146;SDS011;10234;50.856;15.716;2024-02-15T06:00:52;13.05;;;9.05;;
20146;SDS011;10234;50.856;15.716;2024-02-15T06:03:20;16.50;;;8.98;;
20146;SDS011;10234;50.856;15.716;2024-02-15T06:05:48;17.75;;;8.40;;
20146;SDS011;10234;50.856;15.716;2024-02-15T06:08:15;14.18;;;8.90;;
20146;SDS011;10234;50.856;15.716;2024-02-15T06:10:44;15.05;;;8.00;;
20146;SDS011;10234;50.856;15.716;2024-02-15T06:13:12;13.32;;;7.00;;
20146;SDS011;10234;50.856;15.716;2024-02-15T06:15:39;13.68;;;8.38;;
20146;SDS011;10234;50.856;15.716;2024-02-15T06:18:06;9.88;;;6.22;;
20146;SDS011;10234;50.856;15.716;2024-02-15T06:20:35;13.70;;;7.47;;
20146;SDS011;10234;50.856;15.716;2024-02-15T06:23:04;11.65;;;7.35;;
20146;SDS011;10234;50.856;15.716;2024-02-15T06:25:32;12.52;;;7.45;;
20146;SDS011;10234;50.856;15.716;2024-02-15T06:28:01;9.68;;;6.45;;
20146;SDS011;10234;50.856;15.716;2024-02-15T06:30:38;13.68;;;7.95;;
20146;SDS011;10234;50.856;15.716;2024-02-15T06:33:22;13.20;;;7.32;;
20146;SDS011;10234;50.856;15.716;2024-02-15T06:36:07;13.98;;;6.57;;
20146;SDS011;10234;50.856;15.716;2024-02-15T06:38:52;10.63;;;7.63;;
20146;SDS011;10234;50.856;15.716;2024-02-15T06:41:36;11.15;;;7.05;;
20146;SDS011;10234;50.856;15.716;2024-02-15T06:44:04;15.32;;;7.70;;
20146;SDS011;10234;50.856;15.716;2024-02-15T06:46:31;11.23;;;7.00;;
20146;SDS011;10234;50.856;15.716;2024-02-15T06:48:58;11.93;;;7.00;;
20146;SDS011;10234;50.856;15.716;2024-02-15T06:51:25;11.88;;;6.80;;
20146;SDS011;10234;50.856;15.716;2024-02-15T06:53:52;11.75;;;7.32;;
20146;SDS011;10234;50.856;15.716;2024-02-15T06:56:20;14.88;;;7.55;;
20146;SDS011;10234;50.856;15.716;2024-02-15T06:58:47;9.13;;;5.80;;
20146;SDS011;10234;50.856;15.716;2024-02-15T07:01:17;9.07;;;6.20;;
20146;SDS011;10234;50.856;15.716;2024-02-15T07:03:44;11.90;;;6.65;;
20146;SDS011;10234;50.856;15.716;2024-02-15T07:06:12;11.48;;;6.30;;
20146;SDS011;10234;50.856;15.716;2024-02-15T07:08:39;10.23;;;5.90;;
20146;SDS011;10234;50.856;15.716;2024-02-15T07:11:06;13.75;;;6.32;;
20146;SDS011;10234;50.856;15.716;2024-02-15T07:13:34;13.13;;;7.05;;
20146;SDS011;10234;50.856;15.716;2024-02-15T07:16:02;10.48;;;6.30;;
20146;SDS011;10234;50.856;15.716;2024-02-15T07:18:34;11.80;;;6.57;;
20146;SDS011;10234;50.856;15.716;2024-02-15T07:21:01;9.40;;;6.55;;
20146;SDS011;10234;50.856;15.716;2024-02-15T07:23:33;10.75;;;5.88;;
20146;SDS011;10234;50.856;15.716;2024-02-15T07:26:00;11.90;;;7.00;;
20146;SDS011;10234;50.856;15.716;2024-02-15T07:28:28;12.43;;;6.43;;
20146;SDS011;10234;50.856;15.716;2024-02-15T07:30:56;9.48;;;5.90;;
20146;SDS011;10234;50.856;15.716;2024-02-15T07:33:23;10.35;;;6.47;;
20146;SDS011;10234;50.856;15.716;2024-02-15T07:35:51;11.70;;;6.60;;
20146;SDS011;10234;50.856;15.716;2024-02-15T07:38:18;13.07;;;6.15;;
20146;SDS011;10234;50.856;15.716;2024-02-15T07:40:47;11.43;;;8.05;;
20146;SDS011;10234;50.856;15.716;2024-02-15T07:43:14;16.52;;;9.70;;
20146;SDS011;10234;50.856;15.716;2024-02-15T07:45:42;15.05;;;8.10;;
20146;SDS011;10234;50.856;15.716;2024-02-15T07:48:09;13.43;;;8.35;;
20146;SDS011;10234;50.856;15.716;2024-02-15T07:50:35;11.85;;;7.68;;
20146;SDS011;10234;50.856;15.716;2024-02-15T07:53:04;11.68;;;7.28;;
20146;SDS011;10234;50.856;15.716;2024-02-15T07:55:31;10.65;;;7.10;;
20146;SDS011;10234;50.856;15.716;2024-02-15T07:57:59;13.43;;;7.65;;
20146;SDS011;10234;50.856;15.716;2024-02-15T08:00:26;11.70;;;6.13;;
20146;SDS011;10234;50.856;15.716;2024-02-15T08:02:54;9.93;;;5.38;;
20146;SDS011;10234;50.856;15.716;2024-02-15T08:05:22;10.85;;;5.93;;
20146;SDS011;10234;50.856;15.716;2024-02-15T08:07:49;12.23;;;6.47;;
20146;SDS011;10234;50.856;15.716;2024-02-15T08:10:17;9.32;;;5.90;;
20146;SDS011;10234;50.856;15.716;2024-02-15T08:12:45;9.45;;;6.07;;
20146;SDS011;10234;50.856;15.716;2024-02-15T08:15:17;9.10;;;6.05;;
20146;SDS011;10234;50.856;15.716;2024-02-15T08:17:45;10.70;;;5.57;;
20146;SDS011;10234;50.856;15.716;2024-02-15T08:20:13;11.93;;;6.53;;
20146;SDS011;10234;50.856;15.716;2024-02-15T08:22:42;12.82;;;7.65;;
20146;SDS011;10234;50.856;15.716;2024-02-15T08:25:10;13.25;;;8.00;;
20146;SDS011;10234;50.856;15.716;2024-02-15T08:27:39;13.85;;;6.80;;
20146;SDS011;10234;50.856;15.716;2024-02-15T08:30:09;10.40;;;6.60;;
20146;SDS011;10234;50.856;15.716;2024-02-15T08:32:37;11.98;;;6.53;;
20146;SDS011;10234;50.856;15.716;2024-02-15T08:35:04;10.38;;;5.85;;
20146;SDS011;10234;50.856;15.716;2024-02-15T08:37:31;10.30;;;5.72;;
20146;SDS011;10234;50.856;15.716;2024-02-15T08:40:00;8.55;;;4.97;;
20146;SDS011;10234;50.856;15.716;2024-02-15T08:42:27;10.43;;;6.22;;
20146;SDS011;10234;50.856;15.716;2024-02-15T08:44:56;10.25;;;5.57;;
20146;SDS011;10234;50.856;15.716;2024-02-15T08:47:24;6.93;;;5.00;;
20146;SDS011;10234;50.856;15.716;2024-02-15T08:49:52;11.25;;;6.35;;
20146;SDS011;10234;50.856;15.716;2024-02-15T08:52:19;8.30;;;5.80;;
20146;SDS011;10234;50.856;15.716;2024-02-15T08:54:45;7.30;;;5.20;;
20146;SDS011;10234;50.856;15.716;2024-02-15T08:57:12;8.40;;;5.28;;
20146;SDS011;10234;50.856;15.716;2024-02-15T08:59:39;12.05;;;5.68;;
20146;SDS011;10234;50.856;15.716;2024-02-15T09:02:09;13.13;;;6.40;;
20146;SDS011;10234;50.856;15.716;2024-02-15T09:04:35;7.63;;;5.30;;
20146;SDS011;10234;50.856;15.716;2024-02-15T09:07:02;8.23;;;5.53;;
20146;SDS011;10234;50.856;15.716;2024-02-15T09:09:29;9.88;;;5.50;;
20146;SDS011;10234;50.856;15.716;2024-02-15T09:12:00;7.07;;;5.07;;
20146;SDS011;10234;50.856;15.716;2024-02-15T09:14:30;10.45;;;6.10;;
20146;SDS011;10234;50.856;15.716;2024-02-15T09:16:58;10.18;;;6.30;;
20146;SDS011;10234;50.856;15.716;2024-02-15T09:19:26;13.38;;;6.40;;
20146;SDS011;10234;50.856;15.716;2024-02-15T09:21:53;16.30;;;6.75;;
20146;SDS011;10234;50.856;15.716;2024-02-15T09:24:20;12.15;;;6.57;;
20146;SDS011;10234;50.856;15.716;2024-02-15T09:26:47;13.27;;;7.57;;
20146;SDS011;10234;50.856;15.716;2024-02-15T09:29:14;15.48;;;8.38;;
20146;SDS011;10234;50.856;15.716;2024-02-15T09:31:41;14.80;;;8.68;;
20146;SDS011;10234;50.856;15.716;2024-02-15T09:34:08;14.27;;;9.05;;
20146;SDS011;10234;50.856;15.716;2024-02-15T09:36:36;12.63;;;8.60;;
20146;SDS011;10234;50.856;15.716;2024-02-15T09:39:04;16.25;;;9.90;;
20146;SDS011;10234;50.856;15.716;2024-02-15T09:41:31;17.05;;;9.55;;
20146;SDS011;10234;50.856;15.716;2024-02-15T09:43:58;12.90;;;7.32;;
20146;SDS011;10234;50.856;15.716;2024-02-15T09:46:26;13.57;;;7.55;;
20146;SDS011;10234;50.856;15.716;2024-02-15T09:48:54;9.25;;;6.47;;
20146;SDS011;10234;50.856;15.716;2024-02-15T09:51:25;10.00;;;7.38;;
20146;SDS011;10234;50.856;15.716;2024-02-15T09:53:53;11.23;;;7.28;;
20146;SDS011;10234;50.856;15.716;2024-02-15T09:56:23;8.65;;;5.05;;
20146;SDS011;10234;50.856;15.716;2024-02-15T09:58:53;7.93;;;5.18;;
20146;SDS011;10234;50.856;15.716;2024-02-15T10:01:22;6.85;;;4.28;;
20146;SDS011;10234;50.856;15.716;2024-02-15T10:03:49;7.03;;;4.13;;
20146;SDS011;10234;50.856;15.716;2024-02-15T10:06:16;4.97;;;3.50;;
20146;SDS011;10234;50.856;15.716;2024-02-15T10:08:44;6.63;;;4.28;;
20146;SDS011;10234;50.856;15.716;2024-02-15T10:11:13;4.07;;;3.45;;
20146;SDS011;10234;50.856;15.716;2024-02-15T10:13:41;5.50;;;3.22;;
20146;SDS011;10234;50.856;15.716;2024-02-15T10:16:15;3.75;;;2.28;;
20146;SDS011;10234;50.856;15.716;2024-02-15T10:18:43;4.72;;;3.05;;
20146;SDS011;10234;50.856;15.716;2024-02-15T10:21:23;4.28;;;2.03;;
20146;SDS011;10234;50.856;15.716;2024-02-15T10:24:01;2.85;;;1.70;;
20146;SDS011;10234;50.856;15.716;2024-02-15T10:26:33;2.45;;;1.30;;
20146;SDS011;10234;50.856;15.716;2024-02-15T10:29:07;2.88;;;1.90;;
20146;SDS011;10234;50.856;15.716;2024-02-15T10:31:35;1.98;;;1.70;;
20146;SDS011;10234;50.856;15.716;2024-02-15T10:34:05;2.33;;;1.70;;
20146;SDS011;10234;50.856;15.716;2024-02-15T10:36:33;2.15;;;1.95;;
20146;SDS011;10234;50.856;15.716;2024-02-15T10:39:10;2.85;;;1.70;;
20146;SDS011;10234;50.856;15.716;2024-02-15T10:41:43;2.53;;;1.50;;
20146;SDS011;10234;50.856;15.716;2024-02-15T10:44:12;3.08;;;1.58;;
20146;SDS011;10234;50.856;15.716;2024-02-15T10:46:44;1.92;;;1.35;;
20146;SDS011;10234;50.856;15.716;2024-02-15T10:49:16;2.53;;;1.50;;
20146;SDS011;10234;50.856;15.716;2024-02-15T10:51:45;1.67;;;1.40;;
20146;SDS011;10234;50.856;15.716;2024-02-15T10:54:19;1.63;;;1.20;;
20146;SDS011;10234;50.856;15.716;2024-02-15T10:57:02;0.98;;;0.90;;
20146;SDS011;10234;50.856;15.716;2024-02-15T10:59:31;1.30;;;1.20;;
20146;SDS011;10234;50.856;15.716;2024-02-15T11:02:02;1.20;;;1.00;;
20146;SDS011;10234;50.856;15.716;2024-02-15T11:04:51;2.30;;;1.50;;
20146;SDS011;10234;50.856;15.716;2024-02-15T11:07:24;1.20;;;0.90;;
20146;SDS011;10234;50.856;15.716;2024-02-15T11:09:52;2.05;;;1.23;;
20146;SDS011;10234;50.856;15.716;2024-02-15T11:12:22;1.50;;;1.38;;
20146;SDS011;10234;50.856;15.716;2024-02-15T11:14:51;3.13;;;1.00;;
20146;SDS011;10234;50.856;15.716;2024-02-15T11:23:24;1.13;;;0.88;;
20146;SDS011;10234;50.856;15.716;2024-02-15T11:25:55;1.25;;;1.00;;
20146;SDS011;10234;50.856;15.716;2024-02-15T11:28:43;1.10;;;1.00;;
20146;SDS011;10234;50.856;15.716;2024-02-15T11:37:25;1.38;;;1.10;;
20146;SDS011;10234;50.856;15.716;2024-02-15T11:40:20;1.50;;;1.00;;
20146;SDS011;10234;50.856;15.716;2024-02-15T11:42:49;4.25;;;1.50;;
20146;SDS011;10234;50.856;15.716;2024-02-15T11:45:19;2.08;;;1.25;;
20146;SDS011;10234;50.856;15.716;2024-02-15T11:47:47;3.67;;;1.30;;
20146;SDS011;10234;50.856;15.716;2024-02-15T11:50:16;5.40;;;1.33;;
20146;SDS011;10234;50.856;15.716;2024-02-15T11:52:43;1.45;;;1.15;;
20146;SDS011;10234;50.856;15.716;2024-02-15T11:55:11;1.55;;;1.00;;
20146;SDS011;10234;50.856;15.716;2024-02-15T11:57:39;1.85;;;1.20;;
20146;SDS011;10234;50.856;15.716;2024-02-15T12:00:23;1.73;;;1.27;;
20146;SDS011;10234;50.856;15.716;2024-02-15T12:03:08;1.52;;;1.17;;
20146;SDS011;10234;50.856;15.716;2024-02-15T12:05:53;1.92;;;1.10;;
20146;SDS011;10234;50.856;15.716;2024-02-15T12:08:38;1.77;;;1.20;;
20146;SDS011;10234;50.856;15.716;2024-02-15T12:11:22;1.20;;;1.10;;
20146;SDS011;10234;50.856;15.716;2024-02-15T12:14:06;2.28;;;1.00;;
20146;SDS011;10234;50.856;15.716;2024-02-15T12:17:04;1.23;;;1.02;;
20146;SDS011;10234;50.856;15.716;2024-02-15T12:19:50;1.88;;;1.00;;
20146;SDS011;10234;50.856;15.716;2024-02-15T12:22:19;1.65;;;1.02;;
20146;SDS011;10234;50.856;15.716;2024-02-15T12:24:54;0.85;;;0.80;;
20146;SDS011;10234;50.856;15.716;2024-02-15T12:27:22;0.85;;;0.85;;
20146;SDS011;10234;50.856;15.716;2024-02-15T12:29:55;0.80;;;0.80;;
20146;SDS011;10234;50.856;15.716;2024-02-15T12:32:25;1.10;;;1.00;;
20146;SDS011;10234;50.856;15.716;2024-02-15T12:37:30;1.45;;;1.00;;
20146;SDS011;10234;50.856;15.716;2024-02-15T12:39:58;1.63;;;1.35;;
20146;SDS011;10234;50.856;15.716;2024-02-15T12:42:40;1.98;;;1.35;;
20146;SDS011;10234;50.856;15.716;2024-02-15T12:45:14;0.80;;;0.80;;
20146;SDS011;10234;50.856;15.716;2024-02-15T12:47:46;2.45;;;1.02;;
20146;SDS011;10234;50.856;15.716;2024-02-15T12:50:15;1.13;;;0.80;;
20146;SDS011;10234;50.856;15.716;2024-02-15T12:52:44;1.05;;;0.90;;
20146;SDS011;10234;50.856;15.716;2024-02-15T12:55:14;3.35;;;0.93;;
20146;SDS011;10234;50.856;15.716;2024-02-15T12:57:43;1.98;;;0.88;;
20146;SDS011;10234;50.856;15.716;2024-02-15T13:00:25;1.35;;;0.80;;
20146;SDS011;10234;50.856;15.716;2024-02-15T13:02:56;1.20;;;0.80;;
20146;SDS011;10234;50.856;15.716;2024-02-15T13:05:25;1.17;;;0.75;;
20146;SDS011;10234;50.856;15.716;2024-02-15T13:07:53;0.93;;;0.73;;
20146;SDS011;10234;50.856;15.716;2024-02-15T13:10:21;0.60;;;0.60;;
20146;SDS011;10234;50.856;15.716;2024-02-15T13:12:51;1.30;;;0.60;;
20146;SDS011;10234;50.856;15.716;2024-02-15T13:15:21;0.50;;;0.50;;
20146;SDS011;10234;50.856;15.716;2024-02-15T13:17:59;3.50;;;0.50;;
20146;SDS011;10234;50.856;15.716;2024-02-15T13:20:29;0.55;;;0.55;;
20146;SDS011;10234;50.856;15.716;2024-02-15T13:22:59;0.50;;;0.50;;
20146;SDS011;10234;50.856;15.716;2024-02-15T13:25:33;0.40;;;0.40;;
20146;SDS011;10234;50.856;15.716;2024-02-15T13:28:01;0.35;;;0.35;;
20146;SDS011;10234;50.856;15.716;2024-02-15T13:30:30;0.22;;;0.22;;
20146;SDS011;10234;50.856;15.716;2024-02-15T13:33:00;0.30;;;0.30;;
20146;SDS011;10234;50.856;15.716;2024-02-15T13:35:28;0.40;;;0.40;;
20146;SDS011;10234;50.856;15.716;2024-02-15T13:37:55;0.30;;;0.30;;
20146;SDS011;10234;50.856;15.716;2024-02-15T13:40:24;0.85;;;0.40;;
20146;SDS011;10234;50.856;15.716;2024-02-15T13:42:56;0.43;;;0.43;;
20146;SDS011;10234;50.856;15.716;2024-02-15T13:45:26;0.70;;;0.50;;
20146;SDS011;10234;50.856;15.716;2024-02-15T13:48:01;2.33;;;0.50;;
20146;SDS011;10234;50.856;15.716;2024-02-15T13:50:31;0.60;;;0.60;;
20146;SDS011;10234;50.856;15.716;2024-02-15T13:52:58;0.93;;;0.63;;
20146;SDS011;10234;50.856;15.716;2024-02-15T13:55:27;0.40;;;0.40;;
20146;SDS011;10234;50.856;15.716;2024-02-15T13:57:57;1.27;;;0.35;;
20146;SDS011;10234;50.856;15.716;2024-02-15T14:00:25;0.30;;;0.30;;
20146;SDS011;10234;50.856;15.716;2024-02-15T14:02:59;0.50;;;0.40;;
20146;SDS011;10234;50.856;15.716;2024-02-15T14:05:29;0.35;;;0.35;;
20146;SDS011;10234;50.856;15.716;2024-02-15T14:07:58;0.50;;;0.50;;
20146;SDS011;10234;50.856;15.716;2024-02-15T14:10:28;0.43;;;0.43;;
20146;SDS011;10234;50.856;15.716;2024-02-15T14:12:56;0.30;;;0.30;;
20146;SDS011;10234;50.856;15.716;2024-02-15T14:15:24;1.13;;;0.35;;
20146;SDS011;10234;50.856;15.716;2024-02-15T14:17:52;0.47;;;0.40;;
20146;SDS011;10234;50.856;15.716;2024-02-15T14:20:21;0.32;;;0.32;;
20146;SDS011;10234;50.856;15.716;2024-02-15T14:22:53;0.47;;;0.47;;
20146;SDS011;10234;50.856;15.716;2024-02-15T14:25:22;0.40;;;0.40;;
20146;SDS011;10234;50.856;15.716;2024-02-15T14:27:50;0.35;;;0.25;;
20146;SDS011;10234;50.856;15.716;2024-02-15T14:30:19;0.20;;;0.20;;
20146;SDS011;10234;50.856;15.716;2024-02-15T14:33:04;0.25;;;0.25;;
20146;SDS011;10234;50.856;15.716;2024-02-15T14:35:33;0.22;;;0.22;;
20146;SDS011;10234;50.856;15.716;2024-02-15T14:38:03;0.20;;;0.20;;
20146;SDS011;10234;50.856;15.716;2024-02-15T14:40:33;0.22;;;0.22;;
20146;SDS011;10234;50.856;15.716;2024-02-15T14:43:04;0.40;;;0.40;;
20146;SDS011;10234;50.856;15.716;2024-02-15T14:45:32;1.65;;;0.30;;
20146;SDS011;10234;50.856;15.716;2024-02-15T14:48:03;0.28;;;0.28;;
20146;SDS011;10234;50.856;15.716;2024-02-15T14:50:36;0.30;;;0.30;;
20146;SDS011;10234;50.856;15.716;2024-02-15T14:53:07;0.20;;;0.20;;
20146;SDS011;10234;50.856;15.716;2024-02-15T14:55:36;0.20;;;0.20;;